sensor_id;sensor_type;location;lat;lon;timestamp;pressure;altitude;pressure_sealevel;temperature;humidity
71059;BME280;70265;47.576;19.270;2024-02-14T00:00:23;99194.91;;;2.86;80.41
71059;BME280;70265;47.576;19.270;2024-02-14T00:01:27;99199.28;;;2.85;80.57
71059;BME280;70265;47.576;19.270;2024-02-14T00:02:29;99197.63;;;2.84;80.49
71059;BME280;70265;47.576;19.270;2024-02-14T00:03:33;99208.63;;;2.88;80.57
71059;BME280;70265;47.576;19.270;2024-02-14T00:04:34;99197.41;;;2.87;80.61
71059;BME280;70265;47.576;19.270;2024-02-14T00:05:39;99194.00;;;2.87;80.76
71059;BME280;70265;47.576;19.270;2024-02-14T00:06:41;99199.94;;;2.89;80.62
71059;BME280;70265;47.576;19.270;2024-02-14T00:07:45;99200.09;;;2.86;80.87
71059;BME280;70265;47.576;19.270;2024-02-14T00:08:46;99203.00;;;2.81;81.06
71059;BME280;70265;47.576;19.270;2024-02-14T00:09:52;99201.44;;;2.79;81.43
71059;BME280;70265;47.576;19.270;2024-02-14T00:10:54;99201.69;;;2.74;81.40
71059;BME280;70265;47.576;19.270;2024-02-14T00:11:57;99206.25;;;2.71;81.68
71059;BME280;70265;47.576;19.270;2024-02-14T00:12:58;99198.66;;;2.68;81.91
71059;BME280;70265;47.576;19.270;2024-02-14T00:14:02;99207.53;;;2.64;82.22
71059;BME280;70265;47.576;19.270;2024-02-14T00:15:05;99199.78;;;2.64;82.03
71059;BME280;70265;47.576;19.270;2024-02-14T00:16:09;99203.28;;;2.63;82.21
71059;BME280;70265;47.576;19.270;2024-02-14T00:17:11;99206.81;;;2.62;82.47
71059;BME280;70265;47.576;19.270;2024-02-14T00:18:15;99207.00;;;2.59;82.58
71059;BME280;70265;47.576;19.270;2024-02-14T00:19:16;99207.09;;;2.57;82.51
71059;BME280;70265;47.576;19.270;2024-02-14T00:20:19;99209.03;;;2.53;82.73
71059;BME280;70265;47.576;19.270;2024-02-14T00:21:20;99208.31;;;2.51;82.68
71059;BME280;70265;47.576;19.270;2024-02-14T00:22:24;99216.22;;;2.48;82.79
71059;BME280;70265;47.576;19.270;2024-02-14T00:23:25;99216.34;;;2.47;82.72
71059;BME280;70265;47.576;19.270;2024-02-14T00:24:28;99215.69;;;2.43;82.80
71059;BME280;70265;47.576;19.270;2024-02-14T00:25:32;99216.53;;;2.44;82.89
71059;BME280;70265;47.576;19.270;2024-02-14T00:26:36;99217.44;;;2.43;83.15
71059;BME280;70265;47.576;19.270;2024-02-14T00:27:38;99214.97;;;2.41;83.10
71059;BME280;70265;47.576;19.270;2024-02-14T00:28:42;99218.47;;;2.40;83.01
71059;BME280;70265;47.576;19.270;2024-02-14T00:29:43;99211.72;;;2.38;83.26
71059;BME280;70265;47.576;19.270;2024-02-14T00:30:47;99223.84;;;2.37;83.30
71059;BME280;70265;47.576;19.270;2024-02-14T00:31:48;99217.72;;;2.38;83.33
71059;BME280;70265;47.576;19.270;2024-02-14T00:32:49;99216.06;;;2.37;83.43
71059;BME280;70265;47.576;19.270;2024-02-14T00:33:53;99214.41;;;2.36;83.36
71059;BME280;70265;47.576;19.270;2024-02-14T00:34:54;99220.50;;;2.35;83.34
71059;BME280;70265;47.576;19.270;2024-02-14T00:35:58;99223.84;;;2.37;83.39
71059;BME280;70265;47.576;19.270;2024-02-14T00:36:59;99225.47;;;2.38;83.54
71059;BME280;70265;47.576;19.270;2024-02-14T00:38:02;99226.97;;;2.42;83.50
71059;BME280;70265;47.576;19.270;2024-02-14T00:39:03;99231.88;;;2.47;83.40
71059;BME280;70265;47.576;19.270;2024-02-14T00:40:10;99230.78;;;2.51;83.29
71059;BME280;70265;47.576;19.270;2024-02-14T00:41:14;99227.22;;;2.52;83.13
71059;BME280;70265;47.576;19.270;2024-02-14T00:42:18;99228.06;;;2.52;83.13
71059;BME280;70265;47.576;19.270;2024-02-14T00:43:18;99229.75;;;2.53;83.31
71059;BME280;70265;47.576;19.270;2024-02-14T00:44:22;99232.16;;;2.56;83.21
71059;BME280;70265;47.576;19.270;2024-02-14T00:45:23;99230.38;;;2.57;83.15
71059;BME280;70265;47.576;19.270;2024-02-14T00:46:27;99225.22;;;2.57;82.98
71059;BME280;70265;47.576;19.270;2024-02-14T00:47:28;99233.72;;;2.59;83.13
71059;BME280;70265;47.576;19.270;2024-02-14T00:48:29;99231.75;;;2.63;82.94
71059;BME280;70265;47.576;19.270;2024-02-14T00:49:34;99230.13;;;2.62;82.99
71059;BME280;70265;47.576;19.270;2024-02-14T00:50:35;99231.88;;;2.61;83.07
71059;BME280;70265;47.576;19.270;2024-02-14T00:51:39;99232.72;;;2.62;82.97
71059;BME280;70265;47.576;19.270;2024-02-14T00:52:40;99225.94;;;2.59;82.97
71059;BME280;70265;47.576;19.270;2024-02-14T00:53:44;99235.56;;;2.57;82.67
71059;BME280;70265;47.576;19.270;2024-02-14T00:54:44;99231.41;;;2.54;82.98
71059;BME280;70265;47.576;19.270;2024-02-14T00:55:48;99229.94;;;2.50;83.00
71059;BME280;70265;47.576;19.270;2024-02-14T00:56:51;99233.63;;;2.46;82.95
71059;BME280;70265;47.576;19.270;2024-02-14T00:57:52;99234.84;;;2.41;83.13
71059;BME280;70265;47.576;19.270;2024-02-14T00:58:56;99247.41;;;2.33;83.32
71059;BME280;70265;47.576;19.270;2024-02-14T00:59:57;99240.91;;;2.26;83.29
71059;BME280;70265;47.576;19.270;2024-02-14T01:01:00;99245.44;;;2.22;83.60
71059;BME280;70265;47.576;19.270;2024-02-14T01:02:01;99236.38;;;2.15;83.78
71059;BME280;70265;47.576;19.270;2024-02-14T01:03:06;99240.06;;;2.11;83.83
71059;BME280;70265;47.576;19.270;2024-02-14T01:04:07;99233.25;;;2.10;84.00
71059;BME280;70265;47.576;19.270;2024-02-14T01:05:11;99236.75;;;2.09;84.43
71059;BME280;70265;47.576;19.270;2024-02-14T01:06:12;99232.31;;;2.11;84.28
71059;BME280;70265;47.576;19.270;2024-02-14T01:07:15;99240.91;;;2.12;84.40
71059;BME280;70265;47.576;19.270;2024-02-14T01:08:16;99243.59;;;2.10;84.43
71059;BME280;70265;47.576;19.270;2024-02-14T01:09:21;99241.09;;;2.09;84.32
71059;BME280;70265;47.576;19.270;2024-02-14T01:10:22;99244.50;;;2.09;84.22
71059;BME280;70265;47.576;19.270;2024-02-14T01:11:26;99244.50;;;2.09;83.95
71059;BME280;70265;47.576;19.270;2024-02-14T01:12:29;99239.50;;;2.06;84.06
71059;BME280;70265;47.576;19.270;2024-02-14T01:13:33;99246.44;;;2.05;83.96
71059;BME280;70265;47.576;19.270;2024-02-14T01:14:34;99242.19;;;2.04;84.11
71059;BME280;70265;47.576;19.270;2024-02-14T01:15:37;99246.56;;;2.04;84.32
71059;BME280;70265;47.576;19.270;2024-02-14T01:16:42;99249.22;;;2.02;84.21
71059;BME280;70265;47.576;19.270;2024-02-14T01:17:46;99246.81;;;1.99;84.44
71059;BME280;70265;47.576;19.270;2024-02-14T01:18:48;99244.47;;;1.95;84.45
71059;BME280;70265;47.576;19.270;2024-02-14T01:19:51;99242.06;;;1.92;84.38
71059;BME280;70265;47.576;19.270;2024-02-14T01:20:52;99245.75;;;1.88;84.71
71059;BME280;70265;47.576;19.270;2024-02-14T01:21:55;99236.50;;;1.84;84.68
71059;BME280;70265;47.576;19.270;2024-02-14T01:22:57;99237.53;;;1.81;84.91
71059;BME280;70265;47.576;19.270;2024-02-14T01:24:01;99239.25;;;1.81;85.17
71059;BME280;70265;47.576;19.270;2024-02-14T01:25:01;99232.34;;;1.81;85.40
71059;BME280;70265;47.576;19.270;2024-02-14T01:26:06;99234.84;;;1.83;85.42
71059;BME280;70265;47.576;19.270;2024-02-14T01:27:07;99235.59;;;1.85;85.59
71059;BME280;70265;47.576;19.270;2024-02-14T01:28:13;99242.34;;;1.87;85.46
71059;BME280;70265;47.576;19.270;2024-02-14T01:29:14;99237.09;;;1.89;85.58
71059;BME280;70265;47.576;19.270;2024-02-14T01:30:19;99235.16;;;1.92;85.73
71059;BME280;70265;47.576;19.270;2024-02-14T01:31:20;99235.34;;;1.89;85.67
71059;BME280;70265;47.576;19.270;2024-02-14T01:32:24;99233.66;;;1.88;85.55
71059;BME280;70265;47.576;19.270;2024-02-14T01:33:25;99229.41;;;1.87;85.56
71059;BME280;70265;47.576;19.270;2024-02-14T01:34:29;99228.59;;;1.87;85.80
71059;BME280;70265;47.576;19.270;2024-02-14T01:35:30;99233.78;;;1.87;85.68
71059;BME280;70265;47.576;19.270;2024-02-14T01:36:30;99228.75;;;1.84;85.54
71059;BME280;70265;47.576;19.270;2024-02-14T01:37:34;99227.19;;;1.81;85.81
71059;BME280;70265;47.576;19.270;2024-02-14T01:38:35;99233.28;;;1.80;85.68
71059;BME280;70265;47.576;19.270;2024-02-14T01:39:36;99233.44;;;1.77;85.55
71059;BME280;70265;47.576;19.270;2024-02-14T01:40:42;99230.06;;;1.77;85.65
71059;BME280;70265;47.576;19.270;2024-02-14T01:41:46;99235.94;;;1.79;85.58
71059;BME280;70265;47.576;19.270;2024-02-14T01:42:50;99227.28;;;1.80;85.93
71059;BME280;70265;47.576;19.270;2024-02-14T01:43:55;99230.53;;;1.83;85.74
71059;BME280;70265;47.576;19.270;2024-02-14T01:44:59;99240.59;;;1.88;85.60
71059;BME280;70265;47.576;19.270;2024-02-14T01:46:05;99232.38;;;1.95;85.44
71059;BME280;70265;47.576;19.270;2024-02-14T01:47:09;99233.94;;;1.98;85.27
71059;BME280;70265;47.576;19.270;2024-02-14T01:48:11;99239.88;;;2.00;85.24
71059;BME280;70265;47.576;19.270;2024-02-14T01:49:18;99242.28;;;2.03;84.89
71059;BME280;70265;47.576;19.270;2024-02-14T01:50:19;99238.78;;;2.04;84.83
71059;BME280;70265;47.576;19.270;2024-02-14T01:51:30;99243.19;;;2.02;84.90
71059;BME280;70265;47.576;19.270;2024-02-14T01:52:32;99242.19;;;2.04;84.81
71059;BME280;70265;47.576;19.270;2024-02-14T01:53:36;99247.28;;;2.06;84.86
71059;BME280;70265;47.576;19.270;2024-02-14T01:54:38;99248.00;;;2.08;84.70
71059;BME280;70265;47.576;19.270;2024-02-14T01:55:42;99242.00;;;2.08;84.93
71059;BME280;70265;47.576;19.270;2024-02-14T01:56:43;99246.38;;;2.07;84.88
71059;BME280;70265;47.576;19.270;2024-02-14T01:57:48;99248.97;;;2.07;84.90
71059;BME280;70265;47.576;19.270;2024-02-14T01:58:49;99249.03;;;2.05;85.19
71059;BME280;70265;47.576;19.270;2024-02-14T01:59:56;99241.44;;;2.02;85.00
71059;BME280;70265;47.576;19.270;2024-02-14T02:00:58;99246.03;;;1.97;85.33
71059;BME280;70265;47.576;19.270;2024-02-14T02:02:01;99246.34;;;1.93;85.52
71059;BME280;70265;47.576;19.270;2024-02-14T02:03:03;99240.59;;;1.88;85.73
71059;BME280;70265;47.576;19.270;2024-02-14T02:04:07;99242.63;;;1.83;85.70
71059;BME280;70265;47.576;19.270;2024-02-14T02:05:09;99244.63;;;1.78;85.75
71059;BME280;70265;47.576;19.270;2024-02-14T02:06:12;99241.31;;;1.76;86.13
71059;BME280;70265;47.576;19.270;2024-02-14T02:07:13;99242.31;;;1.73;86.32
71059;BME280;70265;47.576;19.270;2024-02-14T02:08:20;99247.50;;;1.73;86.27
71059;BME280;70265;47.576;19.270;2024-02-14T02:09:21;99249.97;;;1.75;86.32
71059;BME280;70265;47.576;19.270;2024-02-14T02:10:24;99250.16;;;1.72;86.20
71059;BME280;70265;47.576;19.270;2024-02-14T02:11:26;99251.81;;;1.73;86.50
71059;BME280;70265;47.576;19.270;2024-02-14T02:12:30;99255.41;;;1.70;86.59
71059;BME280;70265;47.576;19.270;2024-02-14T02:13:31;99252.00;;;1.70;86.68
71059;BME280;70265;47.576;19.270;2024-02-14T02:14:34;99250.31;;;1.69;86.90
71059;BME280;70265;47.576;19.270;2024-02-14T02:15:38;99250.41;;;1.67;87.20
71059;BME280;70265;47.576;19.270;2024-02-14T02:16:39;99254.66;;;1.68;87.25
71059;BME280;70265;47.576;19.270;2024-02-14T02:17:43;99260.56;;;1.70;87.30
71059;BME280;70265;47.576;19.270;2024-02-14T02:18:46;99258.81;;;1.71;87.66
71059;BME280;70265;47.576;19.270;2024-02-14T02:19:52;99258.63;;;1.74;87.81
71059;BME280;70265;47.576;19.270;2024-02-14T02:20:53;99257.72;;;1.75;87.47
71059;BME280;70265;47.576;19.270;2024-02-14T02:21:57;99261.16;;;1.75;87.58
71059;BME280;70265;47.576;19.270;2024-02-14T02:23:02;99267.22;;;1.74;87.56
71059;BME280;70265;47.576;19.270;2024-02-14T02:24:06;99263.81;;;1.74;87.79
71059;BME280;70265;47.576;19.270;2024-02-14T02:25:07;99262.16;;;1.73;87.75
71059;BME280;70265;47.576;19.270;2024-02-14T02:26:11;99268.44;;;1.69;87.79
71059;BME280;70265;47.576;19.270;2024-02-14T02:27:12;99265.09;;;1.67;87.94
71059;BME280;70265;47.576;19.270;2024-02-14T02:28:16;99260.91;;;1.64;87.96
71059;BME280;70265;47.576;19.270;2024-02-14T02:29:17;99265.34;;;1.62;87.95
71059;BME280;70265;47.576;19.270;2024-02-14T02:30:22;99263.69;;;1.61;88.24
71059;BME280;70265;47.576;19.270;2024-02-14T02:31:23;99264.59;;;1.60;88.27
71059;BME280;70265;47.576;19.270;2024-02-14T02:32:24;99262.84;;;1.61;88.33
71059;BME280;70265;47.576;19.270;2024-02-14T02:33:27;99265.44;;;1.61;88.66
71059;BME280;70265;47.576;19.270;2024-02-14T02:34:28;99264.59;;;1.60;88.66
71059;BME280;70265;47.576;19.270;2024-02-14T02:35:29;99268.13;;;1.59;88.87
71059;BME280;70265;47.576;19.270;2024-02-14T02:36:33;99266.44;;;1.58;88.82
71059;BME280;70265;47.576;19.270;2024-02-14T02:37:34;99265.59;;;1.58;88.92
71059;BME280;70265;47.576;19.270;2024-02-14T02:38:37;99267.34;;;1.57;88.84
71059;BME280;70265;47.576;19.270;2024-02-14T02:39:41;99264.94;;;1.54;88.95
71059;BME280;70265;47.576;19.270;2024-02-14T02:40:42;99266.88;;;1.50;88.97
71059;BME280;70265;47.576;19.270;2024-02-14T02:41:43;99263.63;;;1.47;88.91
71059;BME280;70265;47.576;19.270;2024-02-14T02:42:49;99262.97;;;1.43;89.32
71059;BME280;70265;47.576;19.270;2024-02-14T02:43:50;99270.03;;;1.40;89.28
71059;BME280;70265;47.576;19.270;2024-02-14T02:44:54;99273.56;;;1.39;89.32
71059;BME280;70265;47.576;19.270;2024-02-14T02:45:55;99271.81;;;1.39;89.72
71059;BME280;70265;47.576;19.270;2024-02-14T02:47:00;99273.47;;;1.40;89.98
71059;BME280;70265;47.576;19.270;2024-02-14T02:48:01;99282.06;;;1.41;90.08
71059;BME280;70265;47.576;19.270;2024-02-14T02:49:04;99278.47;;;1.43;90.33
71059;BME280;70265;47.576;19.270;2024-02-14T02:50:06;99274.06;;;1.45;90.19
71059;BME280;70265;47.576;19.270;2024-02-14T02:51:10;99277.38;;;1.47;90.31
71059;BME280;70265;47.576;19.270;2024-02-14T02:52:11;99275.72;;;1.46;90.41
71059;BME280;70265;47.576;19.270;2024-02-14T02:53:15;99284.41;;;1.45;90.55
71059;BME280;70265;47.576;19.270;2024-02-14T02:54:18;99279.22;;;1.45;90.40
71059;BME280;70265;47.576;19.270;2024-02-14T02:55:23;99280.22;;;1.43;90.27
71059;BME280;70265;47.576;19.270;2024-02-14T02:56:24;99279.41;;;1.42;90.49
71059;BME280;70265;47.576;19.270;2024-02-14T02:57:30;99282.00;;;1.42;90.57
71059;BME280;70265;47.576;19.270;2024-02-14T02:58:32;99283.06;;;1.38;90.70
71059;BME280;70265;47.576;19.270;2024-02-14T02:59:36;99281.31;;;1.39;90.55
71059;BME280;70265;47.576;19.270;2024-02-14T03:00:37;99289.25;;;1.36;90.63
71059;BME280;70265;47.576;19.270;2024-02-14T03:01:40;99298.75;;;1.35;90.83
71059;BME280;70265;47.576;19.270;2024-02-14T03:02:41;99293.81;;;1.31;90.85
71059;BME280;70265;47.576;19.270;2024-02-14T03:03:45;99287.09;;;1.28;90.80
71059;BME280;70265;47.576;19.270;2024-02-14T03:04:46;99291.59;;;1.25;90.93
71059;BME280;70265;47.576;19.270;2024-02-14T03:05:51;99289.25;;;1.20;90.69
71059;BME280;70265;47.576;19.270;2024-02-14T03:06:52;99293.75;;;1.17;91.06
71059;BME280;70265;47.576;19.270;2024-02-14T03:07:55;99291.44;;;1.12;91.00
71059;BME280;70265;47.576;19.270;2024-02-14T03:08:59;99294.16;;;1.09;91.18
71059;BME280;70265;47.576;19.270;2024-02-14T03:10:06;99285.66;;;1.07;91.41
71059;BME280;70265;47.576;19.270;2024-02-14T03:11:07;99300.41;;;1.05;91.53
71059;BME280;70265;47.576;19.270;2024-02-14T03:12:11;99289.25;;;1.05;91.58
71059;BME280;70265;47.576;19.270;2024-02-14T03:13:16;99291.91;;;1.03;91.67
71059;BME280;70265;47.576;19.270;2024-02-14T03:14:20;99295.56;;;0.99;91.93
71059;BME280;70265;47.576;19.270;2024-02-14T03:15:21;99297.56;;;0.94;92.02
71059;BME280;70265;47.576;19.270;2024-02-14T03:16:26;99295.31;;;0.88;92.12
71059;BME280;70265;47.576;19.270;2024-02-14T03:17:27;99296.47;;;0.82;92.13
71059;BME280;70265;47.576;19.270;2024-02-14T03:18:31;99296.63;;;0.79;92.16
71059;BME280;70265;47.576;19.270;2024-02-14T03:19:32;99305.38;;;0.77;92.14
71059;BME280;70265;47.576;19.270;2024-02-14T03:20:39;99291.72;;;0.75;92.40
71059;BME280;70265;47.576;19.270;2024-02-14T03:21:40;99308.84;;;0.76;92.43
71059;BME280;70265;47.576;19.270;2024-02-14T03:22:44;99305.53;;;0.74;92.61
71059;BME280;70265;47.576;19.270;2024-02-14T03:23:45;99302.94;;;0.74;92.43
71059;BME280;70265;47.576;19.270;2024-02-14T03:24:49;99303.03;;;0.72;92.76
71059;BME280;70265;47.576;19.270;2024-02-14T03:25:52;99305.59;;;0.72;92.62
71059;BME280;70265;47.576;19.270;2024-02-14T03:26:56;99302.94;;;0.74;92.81
71059;BME280;70265;47.576;19.270;2024-02-14T03:27:57;99307.28;;;0.73;92.99
71059;BME280;70265;47.576;19.270;2024-02-14T03:29:00;99309.78;;;0.75;93.10
71059;BME280;70265;47.576;19.270;2024-02-14T03:30:01;99313.19;;;0.75;93.09
71059;BME280;70265;47.576;19.270;2024-02-14T03:31:04;99310.69;;;0.74;93.08
71059;BME280;70265;47.576;19.270;2024-02-14T03:32:07;99315.88;;;0.74;92.89
71059;BME280;70265;47.576;19.270;2024-02-14T03:33:09;99317.44;;;0.76;92.79
71059;BME280;70265;47.576;19.270;2024-02-14T03:34:12;99320.19;;;0.73;92.72
71059;BME280;70265;47.576;19.270;2024-02-14T03:35:13;99311.84;;;0.68;93.02
71059;BME280;70265;47.576;19.270;2024-02-14T03:36:18;99316.19;;;0.68;93.14
71059;BME280;70265;47.576;19.270;2024-02-14T03:37:19;99316.03;;;0.71;93.24
71059;BME280;70265;47.576;19.270;2024-02-14T03:38:25;99309.78;;;0.75;93.06
71059;BME280;70265;47.576;19.270;2024-02-14T03:39:27;99324.19;;;0.79;93.18
71059;BME280;70265;47.576;19.270;2024-02-14T03:40:31;99323.28;;;0.80;93.07
71059;BME280;70265;47.576;19.270;2024-02-14T03:41:34;99324.94;;;0.81;93.11
71059;BME280;70265;47.576;19.270;2024-02-14T03:42:38;99326.53;;;0.83;93.25
71059;BME280;70265;47.576;19.270;2024-02-14T03:43:40;99327.38;;;0.84;93.29
71059;BME280;70265;47.576;19.270;2024-02-14T03:44:44;99321.22;;;0.86;93.43
71059;BME280;70265;47.576;19.270;2024-02-14T03:45:46;99320.19;;;0.89;93.19
71059;BME280;70265;47.576;19.270;2024-02-14T03:46:49;99322.72;;;0.90;93.12
71059;BME280;70265;47.576;19.270;2024-02-14T03:47:50;99325.13;;;0.93;93.11
71059;BME280;70265;47.576;19.270;2024-02-14T03:48:54;99319.97;;;0.93;92.93
71059;BME280;70265;47.576;19.270;2024-02-14T03:49:55;99317.38;;;0.93;92.61
71059;BME280;70265;47.576;19.270;2024-02-14T03:50:59;99325.31;;;0.90;92.48
71059;BME280;70265;47.576;19.270;2024-02-14T03:52:01;99321.03;;;0.89;92.44
71059;BME280;70265;47.576;19.270;2024-02-14T03:53:09;99318.56;;;0.88;92.34
71059;BME280;70265;47.576;19.270;2024-02-14T03:54:11;99322.78;;;0.89;92.48
71059;BME280;70265;47.576;19.270;2024-02-14T03:55:15;99321.88;;;0.90;92.35
71059;BME280;70265;47.576;19.270;2024-02-14T03:56:18;99319.22;;;0.91;92.31
71059;BME280;70265;47.576;19.270;2024-02-14T03:57:24;99325.19;;;0.92;92.46
71059;BME280;70265;47.576;19.270;2024-02-14T03:58:26;99325.97;;;0.94;92.27
71059;BME280;70265;47.576;19.270;2024-02-14T03:59:29;99328.56;;;0.94;92.52
71059;BME280;70265;47.576;19.270;2024-02-14T04:00:30;99331.88;;;0.96;92.29
71059;BME280;70265;47.576;19.270;2024-02-14T04:01:35;99332.72;;;0.96;92.39
71059;BME280;70265;47.576;19.270;2024-02-14T04:02:36;99335.22;;;0.98;92.22
71059;BME280;70265;47.576;19.270;2024-02-14T04:03:40;99328.22;;;1.00;92.31
71059;BME280;70265;47.576;19.270;2024-02-14T04:04:42;99327.22;;;1.02;92.14
71059;BME280;70265;47.576;19.270;2024-02-14T04:05:47;99338.38;;;1.03;92.07
71059;BME280;70265;47.576;19.270;2024-02-14T04:06:48;99338.38;;;1.03;92.10
71059;BME280;70265;47.576;19.270;2024-02-14T04:07:51;99340.06;;;1.04;91.96
71059;BME280;70265;47.576;19.270;2024-02-14T04:08:53;99338.72;;;0.97;92.48
71059;BME280;70265;47.576;19.270;2024-02-14T04:09:57;99343.22;;;0.93;92.83
71059;BME280;70265;47.576;19.270;2024-02-14T04:10:58;99347.81;;;0.88;92.94
71059;BME280;70265;47.576;19.270;2024-02-14T04:12:02;99349.72;;;0.85;93.65
71059;BME280;70265;47.576;19.270;2024-02-14T04:13:06;99354.09;;;0.83;93.77
71059;BME280;70265;47.576;19.270;2024-02-14T04:14:10;99354.09;;;0.83;94.37
71059;BME280;70265;47.576;19.270;2024-02-14T04:15:11;99354.19;;;0.81;94.35
71059;BME280;70265;47.576;19.270;2024-02-14T04:16:19;99357.69;;;0.80;94.37
71059;BME280;70265;47.576;19.270;2024-02-14T04:17:20;99354.47;;;0.75;94.43
71059;BME280;70265;47.576;19.270;2024-02-14T04:18:24;99358.00;;;0.74;94.33
71059;BME280;70265;47.576;19.270;2024-02-14T04:19:25;99364.75;;;0.77;94.50
71059;BME280;70265;47.576;19.270;2024-02-14T04:20:29;99359.06;;;0.70;95.02
71059;BME280;70265;47.576;19.270;2024-02-14T04:21:31;99365.59;;;0.77;94.89
71059;BME280;70265;47.576;19.270;2024-02-14T04:22:35;99374.34;;;0.75;94.30
71059;BME280;70265;47.576;19.270;2024-02-14T04:23:36;99372.44;;;0.61;94.54
71059;BME280;70265;47.576;19.270;2024-02-14T04:24:41;99375.78;;;0.63;94.71
71059;BME280;70265;47.576;19.270;2024-02-14T04:25:45;99375.25;;;0.57;95.25
71059;BME280;70265;47.576;19.270;2024-02-14T04:26:49;99388.38;;;0.52;95.43
71059;BME280;70265;47.576;19.270;2024-02-14T04:27:50;99385.13;;;0.48;95.66
71059;BME280;70265;47.576;19.270;2024-02-14T04:28:56;99387.84;;;0.45;96.01
71059;BME280;70265;47.576;19.270;2024-02-14T04:29:57;99386.28;;;0.43;96.58
71059;BME280;70265;47.576;19.270;2024-02-14T04:30:58;99382.63;;;0.47;96.38
71059;BME280;70265;47.576;19.270;2024-02-14T04:32:02;99391.13;;;0.15;96.08
71059;BME280;70265;47.576;19.270;2024-02-14T04:33:04;99390.91;;;0.19;95.85
71059;BME280;70265;47.576;19.270;2024-02-14T04:34:08;99376.94;;;0.23;95.28
71059;BME280;70265;47.576;19.270;2024-02-14T04:35:10;99389.38;;;0.15;95.33
71059;BME280;70265;47.576;19.270;2024-02-14T04:36:11;99393.00;;;0.11;95.73
71059;BME280;70265;47.576;19.270;2024-02-14T04:37:15;99392.03;;;-0.04;95.47
71059;BME280;70265;47.576;19.270;2024-02-14T04:38:20;99389.44;;;-0.04;95.63
71059;BME280;70265;47.576;19.270;2024-02-14T04:39:21;99392.38;;;-0.11;95.45
71059;BME280;70265;47.576;19.270;2024-02-14T04:40:25;99397.94;;;-0.20;95.53
71059;BME280;70265;47.576;19.270;2024-02-14T04:41:26;99402.16;;;-0.18;95.24
71059;BME280;70265;47.576;19.270;2024-02-14T04:42:29;99399.94;;;-0.25;95.22
71059;BME280;70265;47.576;19.270;2024-02-14T04:43:30;99400.06;;;-0.28;95.42
71059;BME280;70265;47.576;19.270;2024-02-14T04:44:36;99395.22;;;-0.34;95.54
71059;BME280;70265;47.576;19.270;2024-02-14T04:45:37;99395.06;;;-0.31;95.52
71059;BME280;70265;47.576;19.270;2024-02-14T04:46:41;99395.06;;;-0.31;95.56
71059;BME280;70265;47.576;19.270;2024-02-14T04:47:44;99393.38;;;-0.32;95.29
71059;BME280;70265;47.576;19.270;2024-02-14T04:48:47;99394.91;;;-0.28;95.16
71059;BME280;70265;47.576;19.270;2024-02-14T04:49:48;99392.41;;;-0.30;94.92
71059;BME280;70265;47.576;19.270;2024-02-14T04:50:49;99391.78;;;-0.35;94.95
71059;BME280;70265;47.576;19.270;2024-02-14T04:51:53;99400.47;;;-0.37;94.91
71059;BME280;70265;47.576;19.270;2024-02-14T04:52:54;99403.16;;;-0.39;94.90
71059;BME280;70265;47.576;19.270;2024-02-14T04:53:58;99397.28;;;-0.42;95.25
71059;BME280;70265;47.576;19.270;2024-02-14T04:54:59;99400.63;;;-0.40;95.14
71059;BME280;70265;47.576;19.270;2024-02-14T04:56:04;99405.09;;;-0.44;95.49
71059;BME280;70265;47.576;19.270;2024-02-14T04:57:05;99405.09;;;-0.44;95.69
71059;BME280;70265;47.576;19.270;2024-02-14T04:58:09;99406.75;;;-0.43;95.42
71059;BME280;70265;47.576;19.270;2024-02-14T04:59:10;99403.44;;;-0.45;95.48
71059;BME280;70265;47.576;19.270;2024-02-14T05:00:17;99404.53;;;-0.51;95.72
71059;BME280;70265;47.576;19.270;2024-02-14T05:01:19;99412.22;;;-0.49;95.78
71059;BME280;70265;47.576;19.270;2024-02-14T05:02:23;99407.88;;;-0.48;96.29
71059;BME280;70265;47.576;19.270;2024-02-14T05:03:24;99410.47;;;-0.48;95.89
71059;BME280;70265;47.576;19.270;2024-02-14T05:04:26;99417.06;;;-0.43;96.04
71059;BME280;70265;47.576;19.270;2024-02-14T05:05:30;99413.59;;;-0.42;95.89
71059;BME280;70265;47.576;19.270;2024-02-14T05:06:31;99413.59;;;-0.42;95.98
71059;BME280;70265;47.576;19.270;2024-02-14T05:07:34;99406.84;;;-0.44;96.40
71059;BME280;70265;47.576;19.270;2024-02-14T05:08:35;99406.84;;;-0.44;96.74
71059;BME280;70265;47.576;19.270;2024-02-14T05:09:39;99407.47;;;-0.39;97.09
71059;BME280;70265;47.576;19.270;2024-02-14T05:10:40;99408.16;;;-0.36;97.57
71059;BME280;70265;47.576;19.270;2024-02-14T05:11:44;99411.63;;;-0.37;97.57
71059;BME280;70265;47.576;19.270;2024-02-14T05:12:45;99414.16;;;-0.35;98.03
71059;BME280;70265;47.576;19.270;2024-02-14T05:13:48;99417.63;;;-0.36;98.43
71059;BME280;70265;47.576;19.270;2024-02-14T05:14:49;99414.28;;;-0.38;98.06
71059;BME280;70265;47.576;19.270;2024-02-14T05:15:56;99413.78;;;-0.46;97.89
71059;BME280;70265;47.576;19.270;2024-02-14T05:16:57;99420.22;;;-0.55;97.47
71059;BME280;70265;47.576;19.270;2024-02-14T05:18:02;99414.00;;;-0.51;97.85
71059;BME280;70265;47.576;19.270;2024-02-14T05:19:03;99415.28;;;-0.41;97.53
71059;BME280;70265;47.576;19.270;2024-02-14T05:20:08;99415.56;;;-0.66;97.51
71059;BME280;70265;47.576;19.270;2024-02-14T05:21:09;99422.50;;;-0.68;97.64
71059;BME280;70265;47.576;19.270;2024-02-14T05:22:10;99422.50;;;-0.68;97.65
71059;BME280;70265;47.576;19.270;2024-02-14T05:23:14;99419.16;;;-0.70;97.42
71059;BME280;70265;47.576;19.270;2024-02-14T05:24:18;99423.19;;;-0.64;97.13
71059;BME280;70265;47.576;19.270;2024-02-14T05:25:21;99426.28;;;-0.56;96.58
71059;BME280;70265;47.576;19.270;2024-02-14T05:26:22;99425.16;;;-0.51;96.37
71059;BME280;70265;47.576;19.270;2024-02-14T05:27:26;99425.28;;;-0.54;97.02
71059;BME280;70265;47.576;19.270;2024-02-14T05:28:26;99424.31;;;-0.51;97.10
71059;BME280;70265;47.576;19.270;2024-02-14T05:29:30;99427.09;;;-0.56;96.99
71059;BME280;70265;47.576;19.270;2024-02-14T05:30:31;99423.75;;;-0.58;96.91
71059;BME280;70265;47.576;19.270;2024-02-14T05:31:46;99435.38;;;-0.68;97.20